Create Custom Reports and Graphics: Custom Report

Latest 15 Minute Observations

Map

15 Minute Data

Latest Observation

73 Stations

15 Minute Data | America/Los_Angeles
as of 11/28/22 2:49 AM PST
Station Date Time Temp (°F) RH (%) Dew Pt (°F) Wind Spd (mph) Wind Dir (°) Wind Gust (mph) Latest Rain (In) Daily Min Temp (°F) Daily Max Temp (°F) Daily Rain (In) Daily Max Wind (mph) Yest MinT (°F) Yest MaxT (°F) Yest Precip (In) Yest MaxGst (mph) MinBV Day (V)
Upper Lake 11/28/22 0245 46.2   16.7 71   24 37.4   9.2 6.4   5.1 WNW | 300 13.2   10.5 0.00 43.2   14.2 47.4   14.9 0.00 17.5   13.3 26.2 65.9 0.00 16.7 12.4   0.1
Scotts Valley 11/28/22 0245 34.7   9.7 96   0 33.6   9.6 0.6   0.6 WSW | 248 4.1   3.2 0.00 30.0   5.3 36.2   8.8 0.00 4.8   2.6 22.0 67.0 0.00 6.5 -
Scotts Valley-South (Bella Vista) 11/28/22 0245 45.7   11.0 73   16 37.5   5.7 5.4   3.0 W | 270 9.6   4.9 0.00 44.0   13.4 47.0   11.9 0.00 11.4   6.7 27.4 64.7 0.00 11.4 -
Kelseyville 11/28/22 0245 37.1   7.5 85   7 33.0   5.5 0.6   1.0 W | 276 2.8   0.2 0.00 32.3   4.9 41.4   9.8 0.00 5.7   1.1 25.4 64.7 0.00 8.1 -
Kelseyville Remote 11/28/22 0245 41.0   10.2 76   8 34.0   7.4 - - - 0.00 35.1   5.4 42.2   9.4 0.00 - 27.5 68.3 0.00 - -
Kelseyville (Clark Drive) 11/28/22 0245 35.0   5.3 - - - - - 0.00 33.2   5.9 35.8   5.3 0.00 - 24.9 66.6 0.00 - -
Kelsey Bench (Oaklea) 11/28/22 0245 37.7   0.6 81   9 32.4   2.3 3.9   0.6 SSE | 163 5.4   0.4 0.00 36.4   2.5 44.2   4.6 0.00 6.3   0.3 31.1 66.1 0.00 7.7 12.8   0.0
Kelseyville-South 11/28/22 0245 33.9   4.3 3   0 -39.2   3.0 2.5   0.7 SE | 131 5.1   2.0 0.00 32.4   4.5 36.3   6.1 0.00 5.1   1.0 25.8 67.1 0.00 6.8 -
Bell Hill-West 11/28/22 0245 35.6   5.1 88   4 32.5   3.9 3.1   0.8 S | 182 6.1   0.7 0.00 35.3   5.4 41.3   8.2 0.00 6.1   0.7 28.1 65.3 0.00 11.8 -
Wight Way 11/28/22 0200 33.9   6.3 92   5 31.7   5.0 2.2   2.0 ESE | 117 3.5   2.3 0.00 33.2   7.3 36.6   6.6 0.00 3.5   1.1 24.7 68.8 0.00 10.4 -
High Valley Ridgeline (Brassfield) 11/28/22 0245 41.5   4.7 75   18 34.1   2.4 7.6   6.9 WSW | 257 12.3   9.8 0.00 41.4   4.0 44.9   7.6 0.00 21.2   13.6 44.9 62.6 0.00 18.3 -
Ridgeline Top (Brassfield) 11/28/22 0245 40.5   9.5 - - - - - - 39.6   7.1 44.8   8.2 - - 44.8 62.0 - - -
Ridgeline Low (Brassfield) 11/28/22 0245 43.2   1.0 - - - - - - 43.0   0.2 46.8   2.6 - - 38.4 62.0 - - -
High Valley Winery 11/28/22 0245 44.0   14.9 67   26 33.9   6.6 6.0   4.7 W | 261 9.8   6.7 0.00 43.7   15.2 48.4   17.0 0.00 15.8   11.1 26.2 63.0 0.00 13.8 -
Long Valley (Shannon) 11/28/22 0230 36.0   7.4 79   12 30.2   3.7 2.5   2.0 E | 86 5.2   3.2 0.00 34.1   5.9 51.3   19.1 0.00 10.9   7.3 24.3 68.2 0.00 11.7 12.9   0.0
Robertsbridge Vineyards 11/28/22 0245 31.1   1.2 93   5 29.4   2.6 - - - - 31.0   2.3 32.4   1.3 - - 27.8 63.6 - - -
Red Hills (Beckstoffer) 11/28/22 0245 44.9   20.2 72   23 36.3   12.8 - - - - 44.4   20.1 46.7   19.5 - - 22.5 64.8 - - 12.8   0.1
Winters (Shannon) 11/28/22 0245 44.6   20.9 68   23 34.7   13.2 9.3   9.1 W | 270 15.4   13.6 0.00 42.8   19.8 47.4   18.6 0.00 15.5   13.2 21.5 63.8 0.00 14.3 12.9   0.1
Rolling Knolls (Shannon) 11/28/22 0245 38.2   12.7 77   15 31.7   8.1 2.5   2.4 WSW | 248 4.6   4.0 0.00 37.3   12.2 49.7   20.3 0.00 10.0   7.1 22.8 65.5 0.00 12.7 12.9   0.1
Secret Pond (Shannon) 11/28/22 0245 44.2   15.1 70   20 34.9   8.4 8.7   8.6 NNE | 28 14.9   13.9 0.00 43.5   15.2 47.1   16.6 0.00 18.9   16.0 26.4 64.1 0.00 15.2 12.9   0.0
Lower Lake 11/28/22 0245 42.3   7.3 77   3 35.5   6.3 3.7   2.0 SW | 232 7.7   3.6 0.00 41.4   7.5 49.4   11.6 0.00 16.2   11.2 31.8 64.3 0.00 17.0 -
Middletown (Diamond D) 11/28/22 0245 41.9   12.6 73   18 34.0   6.8 2.1   0.5 N | 355 4.1   1.1 0.00 36.2   8.0 43.8   3.6 0.00 7.9   0.4 24.1 67.6 0.00 10.6 12.7   0.0
Middletown-West (Bella Vista) 11/28/22 0245 50.9   21.1 59   35 37.2   9.0 - - - 0.00 36.5   8.5 51.9   13.9 0.00 - 23.7 68.7 0.00 - -
Middletown-South 11/28/22 0245 41.7   8.1 78   9 35.5   5.3 2.4   1.6 W | 276 10.7   8.2 0.00 37.7   5.1 47.1   10.5 0.00 10.7   6.4 28.6 67.0 0.00 10.6 -
Lower Bohn 11/28/22 0245 51.0   26.1 59   38 37.3   12.9 4.3   3.2 WNW | 283 12.8   10.4 0.00 27.6   6.0 51.4   19.8 0.00 15.5   12.9 19.2 69.4 0.00 8.9 -
Upper Bohn-North 11/28/22 0245 48.7   10.4 60   15 35.5   4.4 3.0   2.6 NW | 323 10.5   8.8 0.00 41.3   5.6 49.6   5.8 0.00 - - - - - -
Upper Bohn-South 11/28/22 0245 47.6   6.0 48   10 29.1   11.0 1.8   0.6 WNW | 294 6.6   1.3 0.00 43.6   6.3 48.7   3.4 0.00 - - - - - -
Morgan Valley 11/28/22 0245 47.2   4.1 62   30 34.9   12.1 13.3   10.5 WNW | 296 20.9   16.3 0.00 45.8   3.6 49.6   5.2 0.00 20.9   10.5 45.0 61.7 0.00 21.8 -
Mine Pit South 11/28/22 0215 47.5   3.7 55   22 32.3   8.6 4.6   2.7 NW | 307 11.2   6.7 0.00 46.9   3.5 52.3   1.4 0.00 15.3   0.7 44.9 68.3 0.00 16.0 -
Cow Mountain 11/28/22 0245 37.5   12.9 - - 14.5   7.4 WNW | 293 28.3   20.2 0.00 37.0   13.1 38.8   13.9 0.00 28.3   14.7 38.6 57.6 0.00 24.3 12.9   0.1
Ukiah-SE (Ruddick) 11/28/22 0245 30.8   0.3 92   0 28.9   0.3 0.6   0.6 N | 349 2.1   0.7 0.00 30.7   0.1 33.3   0.5 0.00 3.5   0.3 26.8 72.3 0.00 12.7 -
Max     51.0 96 37.5 14.5 - 28.3 0.00 46.9 52.3 0.00 28.3 45.0 72.3 0.00 24.3 12.9
Avg     41.2 72 31.1 4.6 - 9.5 0.00 - - - - - - - - -
Min     30.8 3 -39.2 0.6 - 2.1 0.00 27.6 32.4 0.00 3.5 19.2 57.6 0.00 6.5 12.4

Yesterday's Daily Summary

73 Stations

Daily Data | America/Los_Angeles
as of 11/28/22 2:49 AM PST
Station Date Daily Max Temp (°F) Daily Min Temp (°F) Daily Rain (In) Season Precip (In) Wind Spd (mph) Daily Max Wind (mph) Time of Max Wind Max Wind Dir (°) Dew Pt (°F) Max RH (%) Min RH (%) Daily Solar Rad (Cal/cm2) Daily ETo (in) 7 Day ETo (in) Chilling <=45F (hrs) Chilling <=45F Seas (hrs) Hrs 70-85F (hrs) Hrs > 95F (hrs) Powdery Mildew Stress (pts) Daily Leaf Wet Hrs (hrs) GDDs (DL) Seas GDDs (DL) MinBV Day (V)
Upper Lake 11/27/22 65.9   0.5 26.2   5.0 0.00 4.12 1.9 16.7   7.6 1435 W | 260 32.4   0.9 98 25 - - - 13.3 398 0.00 0.00 - 0.6 3.0 - 12.2
Scotts Valley 11/27/22 67.0   0.9 22.0   4.9 0.00 3.73 0.9 6.5   0.7 1315 ESE | 122 30.4   0.7 99 24 - - - 15.5 410 0.00 0.00 - 0.5 3.3 - 12.4
Scotts Valley-South (Bella Vista) 11/27/22 64.7   1.0 27.4   6.0 0.00 4.23 1.4 11.4   4.1 2220 NNW | 327 32.8   0.9 98 28 224 0.052 0.37 13.0 390 0.00 0.00 - - 2.7 - 12.6
Kelseyville 11/27/22 64.7   0.1 25.4   3.6 0.00 2.85 1.3 8.1   0.4 1130 NNE | 21 32.2   0.1 97 33 256 0.053 0.41 14.8 394 0.00 0.00 - 5.4 2.3 - 12.5
Kelseyville Remote 11/27/22 68.3   0.6 27.5   3.8 0.00 3.23 - - - - 30.4   0.6 89 23 - - - 13.9 360 0.00 0.00 - - 3.1 - 12.6
Kelseyville (Clark Drive) 11/27/22 66.6   0.2 24.9   4.3 0.00 3.72 - - - - - - - - - - 15.3 383 0.00 0.00 - - 2.9 - 12.7
Kelsey Bench (Oaklea) 11/27/22 66.1   1.0 31.1   5.5 0.00 3.66 3.1 7.7   1.4 1147 N | 7 32.0   2.2 89 27 277 0.061 0.47 13.7 357 0.00 0.00 - - 2.8 - 12.7
Kelseyville-South 11/27/22 67.1   0.5 25.8   4.4 0.00 3.50 1.5 6.8   1.0 1227 NW | 314 -33.6   2.3 3 3 270 0.059 0.45 15.4 387 0.00 0.00 - 0.6 2.8 - 12.6
Bell Hill-West 11/27/22 65.3   0.3 28.1   4.5 0.00 3.12 2.0 11.8   5.0 1357 WSW | 248 32.3   0.9 100 25 242 0.053 0.42 15.2 392 0.00 0.00 - - 2.8 - 12.5
Wight Way 11/27/22 68.8   1.8 24.7   4.5 0.00 2.20 1.1 10.4   2.1 1409 SW | 228 31.0   0.5 100 23 243 0.057 0.45 15.6 - 0.00 0.00 0 - 3.6 - 12.4
High Valley Ridgeline (Brassfield) 11/27/22 62.6   1.9 44.9   1.8 0.00 3.61 5.0 18.3   7.2 2024 WSW | 244 31.2   3.6 62 25 266 0.085 0.65 0.0 220 0.00 0.00 - - 3.9 - 12.5
Ridgeline Top (Brassfield) 11/27/22 62.0   2.1 44.8   1.3 - - - - - - - - - - - - 0.1 221 0.00 0.00 - - 3.6 - 12.8
Ridgeline Low (Brassfield) 11/27/22 62.0   0.7 38.4   2.5 - - - - - - - - - - - - 6.2 312 0.00 0.00 - - 3.7 - 12.7
High Valley Winery 11/27/22 63.0   3.3 26.2   3.9 0.00 4.38 2.6 13.8   4.0 2347 W | 265 30.8   0.6 100 29 - - - 8.7 374 0.00 0.00 - - 3.4 - 12.5
Long Valley (Shannon) 11/27/22 68.2   1.3 24.3   5.7 0.00 4.22 1.3 11.7   4.1 1351 SSE | 154 30.1   0.4 97 25 238 0.057 0.47 15.7 378 0.00 0.00 - - 3.5 - 12.8
Robertsbridge Vineyards 11/27/22 63.6   3.0 27.8   3.8 - - - - - - 31.0   1.4 93 31 - - - 15.6 - 0.00 0.00 0 - 2.6 - 12.5
Red Hills (Beckstoffer) 11/27/22 64.8   0.2 22.5   4.7 - - - - - - 29.7   0.1 96 28 - - - 11.0 358 0.00 0.00 - - 3.6 - 12.5
Winters (Shannon) 11/27/22 63.8   0.4 21.5   4.5 0.00 4.57 1.7 14.3   0.2 2301 WSW | 254 27.7   0.4 96 25 234 0.059 0.45 11.2 396 0.00 0.00 - - 2.8 - 12.8
Rolling Knolls (Shannon) 11/27/22 65.5   2.8 22.8   5.9 0.00 3.44 1.2 12.7   4.4 2108 WSW | 250 29.2   0.7 95 27 210 0.049 0.37 12.4 388 0.00 0.00 - - 2.9 - 12.7
Secret Pond (Shannon) 11/27/22 64.1   0.8 26.4   3.1 0.00 4.84 1.6 15.2   3.5 2252 N | 0 29.1   1.3 96 25 222 0.059 0.43 11.7 374 0.00 0.00 - - 3.2 - 12.7
Lower Lake 11/27/22 64.3   1.7 31.8   5.8 0.00 3.47 3.2 17.0   2.2 2357 WNW | 283 32.0   2.4 91 32 - - - 8.7 329 0.00 0.00 - - 3.5 - 12.5
Middletown (Diamond D) 11/27/22 67.6   0.8 24.1   4.5 0.00 2.53 1.8 10.6   2.4 1504 NNW | 341 32.3   0.5 96 29 222 0.055 0.42 13.6 354 0.00 0.00 - - 3.8 - 12.5
Middletown-West (Bella Vista) 11/27/22 68.7   1.0 23.7   4.8 0.00 3.05 - - - - 32.6   0.9 97 4 - - - 14.4 - 0.00 0.00 - - 4.0 - 12.2
Middletown-South 11/27/22 67.0   1.0 28.6   4.7 0.00 4.19 1.6 10.6   1.1 1509 SW | 223 33.3   1.8 95 27 - - - 14.6 211 0.00 0.00 - 5.3 3.6 - 12.5
Lower Bohn 11/27/22 69.4   2.4 19.2   6.3 0.00 3.62 1.1 8.9   3.5 1436 SSE | 168 29.9   0.7 98 27 245 0.059 0.52 15.6 362 0.00 0.00 - - 4.0 - 12.4
Upper Bohn-North 11/27/22 70.3   2.8 33.1   4.4 0.00 2.80 1.5 8.3   4.4 1554 SE | 127 32.4   3.0 86 22 244 0.058 - 11.9 297 0.05 0.00 0 - 4.4 4,186 12.1
Upper Bohn-South 11/27/22 69.7   0.4 32.4   5.2 0.00 2.83 1.6 6.6   5.0 0201 WSW | 256 26.2   0.3 51 36 116 0.031 - 13.6 309 0.00 0.00 0 - 3.8 4,168 11.8
Morgan Valley 11/27/22 61.7   0.2 45.0   0.2 0.00 3.59 4.4 21.8   5.3 2257 WNW | 282 29.9   0.3 54 28 288 0.084 0.64 0.0 198 0.00 0.00 - - 4.1 - 12.8
Mine Pit South 11/27/22 68.3   5.0 44.9   2.7 0.00 3.17 3.6 16.0   12.3 0013 NNE | 20 28.5   0.3 53 20 - - - - - - - - - - - 12.2
Cow Mountain 11/27/22 57.6   2.7 38.6   8.7 0.00 6.64 8.5 24.3   3.9 1410 W | 270 - - - - - - 3.3 - - - - - - - 12.7
Ukiah-SE (Ruddick) 11/27/22 72.3   0.2 26.8   5.1 0.00 5.31 1.5 12.7   7.3 1752 N | 354 33.0   1.5 97 27 245 0.052 0.38 14.1 396 1.03 0.00 - 7.1 3.8 - 13.0
Humboldt Highway 175 11/27/22 61.4   1.5 32.6   3.8 - - 2.6 10.4   5.4 1241 WNW | 292 31.3   1.7 86 31 - - - - - - - - - - - 12.6
Seigler Springs 11/27/22 60.1   0.7 47.2   0.5 - - 5.2 24.0   9.0 2335 W | 264 31.0   1.6 58 18 - - - - - - - - - - - 12.5
Gray Road 11/27/22 60.8   0.4 48.3   0.8 - - 4.5 25.5   4.9 2244 WSW | 249 29.9   1.0 55 24 - - - - - - - - - - - 12.6
Emerford Road 11/27/22 58.9   1.8 41.3   3.8 - - 3.4 14.8   5.8 1441 W | 272 29.5   2.1 67 16 - - - - - - - - - - - 12.5
Oak Street 11/27/22 58.4   0.5 43.0   3.3 - - 3.0 12.8   4.1 2148 WNW | 297 30.3   2.1 65 20 - - - - - - - - - - - 12.5
Elk Mountain Road 11/27/22 64.4   0.2 28.4   4.5 - - 2.2 9.4   0.7 1028 SE | 139 33.4   1.0 99 33 - - - - - - - - - - - 13.0
Upper Lake 11/27/22 65.4   0.1 29.5   5.7 - - 1.5 12.6   4.3 1543 N | 5 33.3   0.8 96 28 - - - - - - - - - - - 13.0
Bachelor Valley Road 11/27/22 66.0   1.1 26.7   6.0 - - 2.1 16.1   8.7 1426 WNW | 302 34.2   0.4 98 27 - - - - - - - - - - - 12.5
Yuba Street 11/27/22 61.8   1.8 40.6   4.1 - - 2.5 14.2   6.3 2330 NNW | 336 36.0   1.6 92 35 - - - - - - - - - - - 12.6
Cornwall Road 11/27/22 60.9   1.7 42.7   4.1 - - 2.0 8.8   0.4 1504 SW | 221 35.3   4.3 89 35 - - - - - - - - - - - 12.6
Cow Mountain 11/27/22 57.4   3.3 39.8   8.6 - - 5.5 15.6   1.1 1416 NW | 320 35.0   2.8 83 34 - - - - - - - - - - - 12.6
Humboldt Highway 29 11/27/22 64.0   0.1 32.3   5.9 - - 2.5 16.2   8.6 1458 NNW | 342 35.2   2.2 94 26 - - - - - - - - - - - 12.6
Dessie Drive 11/27/22 64.0   0.4 40.4   5.0 - - 3.3 15.0   5.3 1453 NW | 311 35.4   2.7 80 25 - - - - - - - - - - - 12.6
Oasis 11/27/22 62.6   0.9 42.2   2.0 - - 4.6 17.1   6.3 1341 WSW | 243 35.9   4.3 77 27 - - - - - - - - - - - 13.0
Big Valley Road 11/27/22 64.6   0.5 29.1   6.0 - - 2.0 9.1   1.8 1141 N | 9 33.3   1.4 93 32 - - - - - - - - - - - 12.5
Ridge Road - Lake 11/27/22 63.0   1.2 27.1   3.4 - - 2.9 13.4   0.3 1352 SW | 219 33.1   2.4 99 32 - - - - - - - - - - - 13.0
Kelsey Creek Road 11/27/22 64.3   1.0 27.8   5.3 - - 0.7 11.5   1.9 1411 WNW | 302 32.1   1.0 96 31 - - - - - - - - - - - 12.5
Broadview Drive 11/27/22 58.5   2.5 47.7   1.3 - - 1.8 9.5   3.4 2207 SW | 227 32.1   2.5 61 31 - - - - - - - - - - - 12.6
Riviera Estates 11/27/22 61.5   1.4 41.2   5.2 - - 1.9 15.0   1.2 2241 W | 270 36.3   1.5 91 29 - - - - - - - - - - - 12.6
Old Highway 53 11/27/22 64.1   1.9 30.0   5.5 - - 3.5 26.4   3.1 2239 WNW | 295 34.3   3.1 93 32 - - - - - - - - - - - 12.5
Trouble Lane 11/27/22 65.3   1.5 25.8   7.0 - - 1.6 11.9   4.2 2316 NW | 315 31.7   1.1 93 33 - - - - - - - - - - - 12.4
Morgan Valley Road West 11/27/22 66.9   0.5 31.2   3.1 - - 1.2 9.0   4.5 0930 NW | 304 32.8   1.0 94 31 - - - - - - - - - - - 13.0
Morgan Valley Road East 11/27/22 64.4   0.8 41.2   2.5 - - 3.2 14.6   8.0 2238 N | 355 31.0   0.8 61 30 - - - - - - - - - - - 12.5
Humboldt 140 11/27/22 62.5   0.2 27.8   1.9 - - 1.5 9.4   5.4 0100 WNW | 300 29.2   1.1 89 29 - - - - - - - - - - - 13.1
Noble Ranch 11/27/22 64.0   0.5 36.8   3.5 - - 1.4 10.2   3.6 2350 W | 279 32.4   1.3 75 33 - - - - - - - - - - - 12.5
Francis Lane 11/27/22 64.5   0.8 47.8   0.4 - - 2.6 19.8   7.7 2242 NNW | 331 32.8   2.4 58 30 - - - - - - - - - - - 12.7
Daly Place 11/27/22 67.4   0.7 32.1   4.1 - - 1.3 8.0   7.7 1234 SSE | 156 33.7   1.5 91 28 - - - - - - - - - - - 13.0
Honey Hill Drive 11/27/22 66.4   0.6 40.2   3.4 - - 2.0 9.8   5.9 1503 SE | 143 34.0   3.0 71 29 - - - - - - - - - - - 12.5
Noyes Ranch Road 11/27/22 67.2   0.6 31.6   6.6 - - 2.0 11.2   2.5 1350 SE | 141 34.3   2.9 94 27 - - - - - - - - - - - 12.6
Middletown Northwest 11/27/22 66.1   1.8 31.0   5.4 - - 2.3 14.5   0.4 1543 SSW | 204 34.6   2.8 90 31 - - - - - - - - - - - 12.4
Middletown South 11/27/22 64.3   0.6 48.7   0.8 - - 4.0 15.4   1.5 2155 N | 352 31.1   3.1 49 24 - - - - - - - - - - - 12.8
Butts Canyon Road North 11/27/22 67.3   0.7 28.1   4.2 - - 1.6 10.4   0.9 1520 SW | 226 33.3   1.8 93 29 - - - - - - - - - - - 12.5
Butts Canyon Rd 11/27/22 66.5   1.3 27.1   5.6 - - 1.8 9.3   2.6 1429 SSW | 210 32.9   1.0 97 29 - - - - - - - - - - - 12.5
Shady Grove Road 11/27/22 66.2   1.2 30.3   3.4 - - 1.6 10.4   0.6 1329 SW | 214 35.0   2.0 95 34 - - - - - - - - - - - 12.4
Verna Way 11/27/22 62.3   2.5 41.0   4.8 - - 4.7 21.9   6.4 2305 NNW | 340 37.3   2.6 91 34 - - - - - - - - - - - 12.6
Glenhaven 11/27/22 59.1   2.8 46.2   3.3 - - 9.4 28.7   11.4 2342 WNW | 295 32.4   2.5 60 33 - - - - - - - - - - - 12.6
High Valley 11/27/22 63.1   1.3 41.3   2.1 - - 1.9 15.3   5.2 2106 WSW | 256 32.2   2.5 68 28 - - - - - - - - - - - 13.0
New Long Valley Road 11/27/22 65.8   2.7 27.0   5.9 - - 1.6 12.3   3.7 1418 SW | 223 32.4   0.1 98 31 - - - - - - - - - - - 13.0
Spring Valley Road 11/27/22 66.6   0.7 27.9   6.3 - - 0.9 10.4   9.1 1448 WSW | 254 31.6   0.1 94 26 - - - - - - - - - - - 12.4
Walker Ridge West 11/27/22 60.9   0.7 48.6   1.2 - - 5.6 19.5   0.6 2258 WNW | 294 29.8   0.8 53 17 - - - - - - - - - - - 12.6
Flintlock Place 11/27/22 64.4   0.8 46.1   2.5 - - 3.2 12.6   13.3 1346 WSW | 254 31.4   2.2 56 22 - - - - - - - - - - - 12.6
Walker Ridge East 11/27/22 61.6   1.2 48.8   0.1 - - 3.9 20.8   3.9 2254 W | 281 27.0   2.2 55 20 - - - - - - - - - - - 13.0
Max   72.3 48.8 0.00 6.64 9.4 28.7 - - 37.3 100 36 288 0.085 0.65 15.7 - 1.03 0.00 - 7.1 4.4 - 13.1
Avg   - - - - 2.6 - - - 31.1 - - - - - 11.6 - 0.04 0.00 - - 3.4 - -
Min   57.4 19.2 0.00 2.20 0.7 6.5 - - -33.6 3 3 116 0.031 0.37 0.0 - 0.00 0.00 - 0.5 2.3 - 11.8